createdAt,value
2019-04-25T00:01:56.199Z,35.40
2019-04-25T00:04:28.156Z,35.15
2019-04-25T00:06:59.261Z,35.95
2019-04-25T00:09:33.309Z,36.98
2019-04-25T00:12:05.150Z,40.48
2019-04-25T00:14:36.202Z,41.33
2019-04-25T00:17:07.747Z,45.12
2019-04-25T00:19:40.233Z,43.50
2019-04-25T00:22:31.723Z,44.90
2019-04-25T00:25:18.004Z,39.83
2019-04-25T00:27:49.273Z,38.98
2019-04-25T00:30:22.637Z,36.90
2019-04-25T00:32:54.227Z,37.60
2019-04-25T00:35:25.686Z,35.90
2019-04-25T00:37:57.435Z,34.13
2019-04-25T00:40:28.755Z,34.45
2019-04-25T00:43:01.578Z,31.15
2019-04-25T00:45:33.669Z,31.90
2019-04-25T00:48:05.343Z,31.73
2019-04-25T00:50:37.655Z,28.10
2019-04-25T00:53:08.707Z,30.60
2019-04-25T00:55:41.428Z,30.55
2019-04-25T00:58:14.694Z,30.72
2019-04-25T01:00:51.107Z,29.70
2019-04-25T01:03:24.204Z,31.65
2019-04-25T01:05:55.667Z,29.52
2019-04-25T01:08:27.227Z,29.87
2019-04-25T01:10:58.875Z,28.92
2019-04-25T01:13:30.124Z,27.65
2019-04-25T01:16:03.831Z,26.25
2019-04-25T01:18:35.448Z,25.70
2019-04-25T01:21:07.748Z,25.30
2019-04-25T01:23:38.892Z,29.02
2019-04-25T01:26:10.352Z,26.93
2019-04-25T01:28:41.591Z,25.35
2019-04-25T01:31:14.877Z,25.75
2019-04-25T01:33:46.771Z,27.25
2019-04-25T01:36:25.873Z,23.67
2019-04-25T01:39:11.144Z,22.20
2019-04-25T01:41:44.215Z,25.23
2019-04-25T01:44:24.145Z,22.90
2019-04-25T01:46:56.470Z,24.00
2019-04-25T01:49:27.636Z,25.72
2019-04-25T01:51:59.466Z,24.57
2019-04-25T01:54:31.108Z,25.43
2019-04-25T01:57:04.175Z,23.22
2019-04-25T01:59:35.748Z,23.27
2019-04-25T02:02:08.631Z,25.10
2019-04-25T02:04:40.079Z,25.60
2019-04-25T02:07:11.426Z,26.75
2019-04-25T02:09:43.571Z,28.05
2019-04-25T02:12:16.336Z,27.40
2019-04-25T02:14:47.927Z,28.47
2019-04-25T02:17:19.787Z,28.17
2019-04-25T02:19:52.029Z,26.85
2019-04-25T02:22:24.328Z,28.35
2019-04-25T02:24:56.855Z,27.40
2019-04-25T02:27:28.209Z,27.45
2019-04-25T02:30:00.935Z,26.17
2019-04-25T02:32:34.457Z,29.55
2019-04-25T02:35:09.523Z,33.25
2019-04-25T02:37:40.098Z,29.18
2019-04-25T02:40:11.276Z,29.42
2019-04-25T02:42:44.227Z,31.27
2019-04-25T02:45:34.258Z,28.77
2019-04-25T02:48:19.704Z,29.40
2019-04-25T02:50:54.097Z,30.45
2019-04-25T02:53:36.392Z,28.77
2019-04-25T02:56:25.732Z,29.90
2019-04-25T02:58:39.022Z,30.10
2019-04-25T03:01:21.275Z,30.27
2019-04-25T03:03:45.131Z,27.90
2019-04-25T03:06:16.230Z,28.00
2019-04-25T03:08:47.794Z,27.02
2019-04-25T03:11:20.674Z,25.00
2019-04-25T03:13:54.364Z,25.55
2019-04-25T03:16:25.268Z,24.57
2019-04-25T03:19:00.436Z,24.47
2019-04-25T03:21:36.393Z,24.52
2019-04-25T03:24:10.266Z,23.90
2019-04-25T03:26:41.959Z,25.75
2019-04-25T03:29:13.751Z,26.00
2019-04-25T03:31:45.262Z,25.32
2019-04-25T03:34:20.293Z,24.35
2019-04-25T03:36:49.332Z,25.45
2019-04-25T03:39:20.750Z,27.00
2019-04-25T03:41:51.882Z,27.98
2019-04-25T03:44:23.676Z,27.20
2019-04-25T03:46:56.221Z,24.32
2019-04-25T03:49:27.780Z,23.90
2019-04-25T03:51:59.364Z,21.42
2019-04-25T03:54:30.727Z,24.23
2019-04-25T03:57:04.725Z,22.95
2019-04-25T03:59:35.419Z,26.82
2019-04-25T04:02:08.193Z,26.12
2019-04-25T04:04:39.946Z,27.27
2019-04-25T04:07:12.733Z,28.42
2019-04-25T04:09:44.692Z,31.00
2019-04-25T04:12:17.188Z,29.80
2019-04-25T04:14:49.947Z,32.73
2019-04-25T04:17:25.724Z,30.88
2019-04-25T04:19:58.886Z,31.17
2019-04-25T04:22:32.083Z,33.00
2019-04-25T04:25:05.921Z,32.50
2019-04-25T04:27:37.206Z,30.20
2019-04-25T04:30:08.786Z,30.80
2019-04-25T04:32:40.061Z,28.25
2019-04-25T04:35:11.478Z,27.30
2019-04-25T04:37:43.230Z,28.70
2019-04-25T04:40:18.255Z,28.73
2019-04-25T04:42:50.993Z,31.25
2019-04-25T04:45:24.325Z,30.48
2019-04-25T04:47:55.957Z,32.48
2019-04-25T04:50:27.145Z,29.87
2019-04-25T04:52:58.778Z,28.62
2019-04-25T04:55:30.175Z,26.20
2019-04-25T04:58:01.553Z,26.42
2019-04-25T05:00:33.839Z,23.57
2019-04-25T05:03:16.994Z,20.80
2019-04-25T05:05:55.137Z,21.57
2019-04-25T05:08:30.875Z,18.98
2019-04-25T05:11:01.912Z,19.90
2019-04-25T05:13:34.311Z,20.77
2019-04-25T05:16:07.039Z,19.67
2019-04-25T05:18:40.079Z,18.73
2019-04-25T05:21:15.727Z,19.48
2019-04-25T05:23:50.708Z,18.62
2019-04-25T05:26:25.025Z,19.45
2019-04-25T05:29:00.095Z,19.52
2019-04-25T05:31:34.182Z,20.05
2019-04-25T05:34:05.673Z,19.40
2019-04-25T05:36:40.032Z,20.52
2019-04-25T05:39:11.689Z,20.85
2019-04-25T05:41:47.793Z,19.52
2019-04-25T05:44:19.391Z,19.45
2019-04-25T05:46:50.997Z,20.65
2019-04-25T05:49:24.260Z,22.00
2019-04-25T05:51:57.056Z,22.65
2019-04-25T05:54:28.481Z,20.30
2019-04-25T05:57:03.728Z,22.22
2019-04-25T05:59:36.915Z,21.85
2019-04-25T06:02:09.195Z,21.45
2019-04-25T06:04:40.729Z,20.08
2019-04-25T06:07:14.367Z,20.70
2019-04-25T06:09:47.523Z,20.75
2019-04-25T06:12:37.403Z,23.18
2019-04-25T06:15:09.064Z,23.62
2019-04-25T06:17:44.808Z,24.23
2019-04-25T06:20:18.000Z,22.80
2019-04-25T06:23:03.306Z,24.55
2019-04-25T06:25:39.466Z,24.23
2019-04-25T06:28:17.875Z,25.95
2019-04-25T06:30:49.400Z,23.90
2019-04-25T06:33:21.301Z,23.15
2019-04-25T06:35:52.633Z,24.35
2019-04-25T06:38:26.856Z,22.95
2019-04-25T06:40:57.347Z,23.22
2019-04-25T06:43:28.600Z,22.30
2019-04-25T06:46:14.058Z,23.38
2019-04-25T06:48:47.305Z,23.67
2019-04-25T06:51:19.074Z,23.35
2019-04-25T06:53:51.379Z,23.32
2019-04-25T06:56:25.259Z,24.95
2019-04-25T06:58:57.967Z,23.70
2019-04-25T07:01:30.448Z,23.22
2019-04-25T07:04:01.933Z,22.87
2019-04-25T07:06:33.857Z,25.40
2019-04-25T07:09:09.784Z,24.98
2019-04-25T07:11:44.241Z,25.52
2019-04-25T07:14:18.424Z,25.10
2019-04-25T07:16:50.625Z,23.73
2019-04-25T07:19:24.768Z,24.43
2019-04-25T07:21:55.082Z,25.02
2019-04-25T07:24:27.250Z,24.85
2019-04-25T07:27:03.825Z,24.70
2019-04-25T07:29:48.766Z,24.12
2019-04-25T07:32:29.630Z,23.70
2019-04-25T07:34:57.300Z,24.30
2019-04-25T07:37:29.736Z,24.70
2019-04-25T07:40:00.977Z,25.32
2019-04-25T07:42:34.306Z,25.80
2019-04-25T07:45:08.756Z,25.62
2019-04-25T07:47:39.929Z,26.10
2019-04-25T07:50:11.314Z,24.90
2019-04-25T07:52:44.181Z,24.90
2019-04-25T07:55:16.676Z,23.95
2019-04-25T07:57:48.027Z,25.75
2019-04-25T08:00:19.779Z,24.60
2019-04-25T08:02:50.829Z,24.90
2019-04-25T08:05:24.071Z,24.27
2019-04-25T08:07:56.206Z,24.73
2019-04-25T08:10:27.987Z,24.75
2019-04-25T08:12:59.281Z,24.30
2019-04-25T08:15:33.521Z,25.23
2019-04-25T08:18:06.620Z,25.50
2019-04-25T08:20:37.829Z,24.80
2019-04-25T08:23:10.404Z,25.23
2019-04-25T08:25:43.270Z,25.35
2019-04-25T08:28:14.530Z,26.42
2019-04-25T08:30:45.888Z,26.12
2019-04-25T08:33:17.125Z,25.57
2019-04-25T08:36:03.435Z,25.23
2019-04-25T08:38:21.462Z,22.30
2019-04-25T08:40:54.221Z,23.25
2019-04-25T08:43:25.899Z,24.25
2019-04-25T08:45:57.052Z,24.18
2019-04-25T08:48:30.442Z,22.58
2019-04-25T08:51:07.110Z,24.07
2019-04-25T08:53:40.943Z,22.02
2019-04-25T08:56:20.157Z,20.93
2019-04-25T08:59:08.497Z,20.72
2019-04-25T09:01:45.203Z,21.82
2019-04-25T09:04:18.298Z,20.65
2019-04-25T09:06:50.000Z,22.20
2019-04-25T09:09:21.662Z,21.05
2019-04-25T09:11:54.355Z,21.00
2019-04-25T09:14:26.204Z,21.15
2019-04-25T09:16:57.611Z,22.25
2019-04-25T09:19:29.314Z,20.10
2019-04-25T09:22:00.574Z,21.12
2019-04-25T09:24:32.203Z,19.35
2019-04-25T09:27:03.797Z,19.37
2019-04-25T09:29:35.701Z,19.40
2019-04-25T09:32:08.189Z,18.17
2019-04-25T09:34:39.959Z,19.12
2019-04-25T09:37:11.301Z,17.42
2019-04-25T09:39:44.375Z,19.60
2019-04-25T09:42:16.380Z,18.85
2019-04-25T09:45:04.497Z,19.07
2019-04-25T09:47:37.153Z,19.25
2019-04-25T09:50:13.904Z,19.17
2019-04-25T09:52:47.090Z,17.95
2019-04-25T09:55:25.907Z,16.27
2019-04-25T09:58:04.085Z,17.25
2019-04-25T10:00:38.099Z,18.35
2019-04-25T10:03:09.630Z,18.37
2019-04-25T10:05:40.973Z,17.42
2019-04-25T10:08:13.453Z,16.23
2019-04-25T10:10:44.736Z,15.78
2019-04-25T10:13:16.199Z,15.13
2019-04-25T10:16:07.461Z,17.15
2019-04-25T10:18:39.222Z,14.93
2019-04-25T10:21:11.395Z,14.20
2019-04-25T10:23:44.088Z,14.63
2019-04-25T10:26:16.539Z,13.03
2019-04-25T10:28:47.861Z,13.58
2019-04-25T10:31:19.126Z,13.43
2019-04-25T10:33:50.383Z,14.05
2019-04-25T10:36:23.264Z,13.68
2019-04-25T10:39:07.229Z,13.85
2019-04-25T10:41:29.442Z,14.35
2019-04-25T10:44:03.335Z,13.22
2019-04-25T10:46:34.594Z,14.33
2019-04-25T10:49:05.803Z,14.47
2019-04-25T10:51:37.384Z,13.95
2019-04-25T10:54:08.730Z,14.60
2019-04-25T10:56:40.138Z,15.10
2019-04-25T10:59:11.263Z,15.08
2019-04-25T11:01:44.687Z,14.40
2019-04-25T11:04:17.293Z,14.70
2019-04-25T11:06:49.319Z,14.83
2019-04-25T11:09:25.324Z,14.25
2019-04-25T11:11:56.375Z,13.00
2019-04-25T11:14:28.121Z,14.15
2019-04-25T11:16:59.617Z,14.20
2019-04-25T11:19:31.221Z,14.70
2019-04-25T11:22:03.985Z,14.45
2019-04-25T11:24:36.717Z,13.60
2019-04-25T11:27:08.134Z,13.80
2019-04-25T11:29:39.270Z,13.88
2019-04-25T11:32:10.514Z,13.48
2019-04-25T11:34:43.151Z,13.32
2019-04-25T11:37:14.775Z,12.60
2019-04-25T11:39:48.046Z,14.60
2019-04-25T11:42:19.623Z,13.60
2019-04-25T11:44:51.146Z,12.55
2019-04-25T11:47:24.179Z,14.33
2019-04-25T11:49:55.770Z,14.60
2019-04-25T11:52:30.139Z,15.58
2019-04-25T11:55:00.055Z,15.53
2019-04-25T11:57:31.419Z,15.75
2019-04-25T12:00:04.280Z,16.12
2019-04-25T12:02:36.503Z,14.80
2019-04-25T12:05:08.035Z,14.53
2019-04-25T12:07:39.623Z,14.73
2019-04-25T12:10:11.180Z,14.98
2019-04-25T12:12:43.310Z,13.85
2019-04-25T12:15:15.219Z,15.10
2019-04-25T12:17:47.445Z,13.40
2019-04-25T12:20:18.722Z,14.45
2019-04-25T12:22:51.641Z,14.25
2019-04-25T12:25:23.740Z,13.70
2019-04-25T12:27:55.222Z,14.28
2019-04-25T12:30:37.101Z,14.30
2019-04-25T12:32:59.345Z,15.88
2019-04-25T12:35:30.904Z,15.15
2019-04-25T12:38:03.413Z,14.28
2019-04-25T12:40:34.724Z,14.53
2019-04-25T12:43:06.043Z,13.03
2019-04-25T12:45:38.747Z,13.83
2019-04-25T12:48:11.641Z,13.68
2019-04-25T12:50:43.962Z,13.32
2019-04-25T12:53:15.433Z,13.22
2019-04-25T12:55:47.486Z,14.33
2019-04-25T12:58:18.867Z,13.50
2019-04-25T13:00:54.214Z,14.38
2019-04-25T13:03:24.225Z,13.83
2019-04-25T13:05:56.494Z,14.58
2019-04-25T13:08:27.629Z,14.07
2019-04-25T13:11:07.948Z,13.65
2019-04-25T13:13:33.757Z,13.72
2019-04-25T13:16:05.512Z,14.65
2019-04-25T13:18:38.246Z,13.95
2019-04-25T13:21:09.815Z,14.35
2019-04-25T13:23:44.251Z,13.93
2019-04-25T13:26:17.257Z,13.58
2019-04-25T13:29:05.547Z,14.07
2019-04-25T13:31:41.544Z,13.80
2019-04-25T13:34:14.903Z,13.43
2019-04-25T13:36:46.261Z,13.22
2019-04-25T13:39:19.027Z,13.38
2019-04-25T13:41:50.254Z,14.98
2019-04-25T13:44:21.456Z,14.35
2019-04-25T13:46:53.327Z,13.38
2019-04-25T13:49:25.031Z,13.93
2019-04-25T13:51:57.227Z,14.10
2019-04-25T13:54:28.846Z,14.43
2019-04-25T13:57:00.524Z,13.45
2019-04-25T13:59:32.609Z,13.30
2019-04-25T14:02:06.278Z,14.13
2019-04-25T14:04:37.841Z,13.62
2019-04-25T14:07:09.207Z,14.80
2019-04-25T14:09:40.919Z,14.45
2019-04-25T14:12:13.995Z,14.98
2019-04-25T14:14:45.757Z,15.05
2019-04-25T14:17:18.974Z,13.62
2019-04-25T14:20:07.122Z,13.60
2019-04-25T14:22:39.230Z,13.85
2019-04-25T14:25:10.409Z,13.53
2019-04-25T14:27:43.402Z,13.32
2019-04-25T14:30:17.328Z,12.47
2019-04-25T14:35:19.624Z,13.93
2019-04-25T14:37:51.260Z,14.93
2019-04-25T14:40:24.706Z,13.75
2019-04-25T14:42:56.423Z,14.37
2019-04-25T14:45:40.327Z,14.80
2019-04-25T14:48:01.273Z,14.68
2019-04-25T14:50:32.815Z,15.60
2019-04-25T14:53:04.475Z,15.78
2019-04-25T14:55:49.011Z,14.20
2019-04-25T14:58:20.678Z,15.15
2019-04-25T15:00:52.438Z,16.45
2019-04-25T15:03:24.133Z,15.58
2019-04-25T15:05:55.754Z,16.55
2019-04-25T15:08:28.508Z,16.55
2019-04-25T15:10:59.894Z,16.23
2019-04-25T15:13:33.067Z,14.33
2019-04-25T15:16:04.948Z,14.98
2019-04-25T15:18:46.117Z,13.98
2019-04-25T15:21:09.239Z,14.75
2019-04-25T15:23:40.921Z,14.53
2019-04-25T15:26:12.738Z,15.10
2019-04-25T15:28:44.297Z,18.80
2019-04-25T15:31:16.914Z,23.75
2019-04-25T15:33:48.566Z,25.45
2019-04-25T15:36:27.297Z,25.70
2019-04-25T15:39:00.469Z,26.55
2019-04-25T15:44:26.655Z,29.32
2019-04-25T15:46:59.509Z,26.82
2019-04-25T15:49:31.264Z,27.75
2019-04-25T15:52:02.517Z,28.77
2019-04-25T15:54:33.939Z,27.77
2019-04-25T15:57:05.833Z,29.65
2019-04-25T15:59:37.477Z,29.25
2019-04-25T16:02:10.472Z,30.55
2019-04-25T16:04:42.113Z,30.82
2019-04-25T16:07:13.465Z,30.35
2019-04-25T16:09:44.856Z,30.05
2019-04-25T16:12:16.547Z,32.17
2019-04-25T16:14:48.701Z,32.20
2019-04-25T16:17:20.186Z,33.50
2019-04-25T16:19:52.868Z,33.85
2019-04-25T16:22:25.478Z,36.88
2019-04-25T16:24:57.268Z,31.00
2019-04-25T16:27:28.979Z,31.77
2019-04-25T16:30:00.224Z,31.70
2019-04-25T16:32:32.439Z,31.87
2019-04-25T16:35:05.476Z,31.75
2019-04-25T16:37:36.895Z,32.30
2019-04-25T16:40:08.254Z,32.23
2019-04-25T16:42:40.013Z,34.70
2019-04-25T16:45:11.978Z,34.23
2019-04-25T16:47:43.143Z,35.58
2019-04-25T16:50:15.559Z,36.50
2019-04-25T16:52:46.634Z,37.23
2019-04-25T16:55:18.491Z,44.03
2019-04-25T16:57:49.834Z,46.15
2019-04-25T17:00:23.029Z,45.95
2019-04-25T17:02:54.557Z,47.35
2019-04-25T17:05:27.283Z,42.93
2019-04-25T17:07:58.392Z,45.05
2019-04-25T17:10:31.457Z,43.65
2019-04-25T17:13:02.842Z,41.63
2019-04-25T17:15:42.081Z,43.40
2019-04-25T17:18:15.543Z,38.83
2019-04-25T17:20:57.391Z,35.05
2019-04-25T17:23:29.011Z,34.27
2019-04-25T17:26:00.707Z,34.10
2019-04-25T17:28:34.894Z,31.48
2019-04-25T17:31:07.703Z,33.05
2019-04-25T17:33:52.751Z,33.58
2019-04-25T17:36:28.893Z,32.93
2019-04-25T17:39:01.775Z,33.60
2019-04-25T17:41:34.660Z,32.70
2019-04-25T17:44:06.450Z,26.70
2019-04-25T17:46:38.020Z,24.40
2019-04-25T17:49:09.728Z,26.70
2019-04-25T17:51:41.970Z,24.10
2019-04-25T17:54:13.273Z,24.80
2019-04-25T17:56:44.903Z,22.27
2019-04-25T17:59:16.351Z,22.75
2019-04-25T18:01:47.979Z,22.67
2019-04-25T18:04:19.347Z,24.43
2019-04-25T18:06:50.902Z,25.30
2019-04-25T18:09:22.667Z,22.40
2019-04-25T18:11:54.313Z,22.30
2019-04-25T18:14:25.872Z,24.00
2019-04-25T18:16:57.314Z,24.43
2019-04-25T18:19:48.732Z,23.42
2019-04-25T18:22:37.151Z,24.80
2019-04-25T18:25:13.103Z,25.25
2019-04-25T18:27:46.455Z,23.90
2019-04-25T18:30:18.133Z,23.22
2019-04-25T18:32:57.358Z,23.10
2019-04-25T18:35:30.403Z,23.62
2019-04-25T18:38:03.699Z,21.90
2019-04-25T18:40:39.854Z,21.50
2019-04-25T18:43:19.053Z,22.52
2019-04-25T18:45:55.262Z,22.52
2019-04-25T18:48:29.391Z,23.15
2019-04-25T18:51:04.449Z,23.42
2019-04-25T18:53:48.131Z,23.42
2019-04-25T18:56:24.296Z,23.98
2019-04-25T18:59:12.333Z,23.18
2019-04-25T19:02:03.440Z,23.87
2019-04-25T19:04:52.212Z,24.50
2019-04-25T19:07:29.899Z,25.05
2019-04-25T19:10:04.624Z,24.43
2019-04-25T19:12:40.205Z,27.35
2019-04-25T19:15:22.712Z,27.93
2019-04-25T19:18:12.329Z,26.57
2019-04-25T19:20:46.493Z,28.23
2019-04-25T19:23:29.401Z,25.50
2019-04-25T19:26:04.940Z,26.02
2019-04-25T19:28:48.109Z,24.15
2019-04-25T19:31:20.867Z,25.25
2019-04-25T19:33:52.989Z,24.65
2019-04-25T19:36:31.170Z,24.27
2019-04-25T19:39:02.751Z,22.25
2019-04-25T19:41:38.821Z,22.45
2019-04-25T19:46:49.542Z,22.15
2019-04-25T19:49:22.079Z,23.62
2019-04-25T19:51:56.272Z,23.30
2019-04-25T19:54:27.850Z,23.32
2019-04-25T19:57:00.421Z,22.98
2019-04-25T19:59:36.090Z,21.55
2019-04-25T20:02:09.883Z,20.25
2019-04-25T20:05:02.219Z,22.52
2019-04-25T20:07:36.986Z,23.38
2019-04-25T20:10:26.095Z,22.45
2019-04-25T20:12:59.917Z,24.75
2019-04-25T20:15:36.691Z,23.00
2019-04-25T20:18:10.289Z,25.10
2019-04-25T20:20:41.391Z,24.77
2019-04-25T20:23:14.521Z,22.90
2019-04-25T20:28:23.438Z,23.40
2019-04-25T20:30:55.169Z,22.73
2019-04-25T20:33:35.582Z,22.42
2019-04-25T20:36:17.211Z,23.00
2019-04-25T20:38:40.380Z,22.00
2019-04-25T20:41:22.991Z,21.97
2019-04-25T20:43:56.969Z,22.70
2019-04-25T20:46:30.853Z,22.30
2019-04-25T20:49:05.404Z,21.60
2019-04-25T20:51:37.032Z,22.70
2019-04-25T20:54:15.857Z,20.97
2019-04-25T20:56:49.763Z,21.45
2019-04-25T20:59:40.354Z,20.45
2019-04-25T21:02:14.840Z,20.57
2019-04-25T21:04:48.922Z,21.57
2019-04-25T21:07:22.288Z,20.52
2019-04-25T21:09:53.837Z,20.80
2019-04-25T21:12:26.479Z,21.27
2019-04-25T21:15:04.315Z,22.40
2019-04-25T21:17:58.374Z,22.15
2019-04-25T21:20:29.858Z,23.40
2019-04-25T21:23:02.219Z,25.30
2019-04-25T21:25:34.539Z,23.77
2019-04-25T21:28:06.077Z,22.98
2019-04-25T21:30:38.925Z,24.35
2019-04-25T21:33:13.644Z,23.70
2019-04-25T21:35:46.020Z,22.98
2019-04-25T21:38:17.879Z,23.95
2019-04-25T21:40:53.953Z,26.12
2019-04-25T21:43:31.528Z,26.50
2019-04-25T21:46:06.151Z,29.12
2019-04-25T21:48:37.602Z,27.73
2019-04-25T21:51:26.768Z,28.50
2019-04-25T21:54:07.127Z,29.67
2019-04-25T21:56:42.763Z,32.23
2019-04-25T21:59:15.561Z,34.03
2019-04-25T22:01:48.645Z,32.60
2019-04-25T22:04:20.913Z,31.57
2019-04-25T22:06:52.771Z,32.85
2019-04-25T22:09:26.317Z,34.75
2019-04-25T22:11:59.324Z,35.80
2019-04-25T22:14:31.016Z,34.63
2019-04-25T22:17:03.884Z,35.25
2019-04-25T22:19:37.412Z,33.33
2019-04-25T22:22:13.558Z,30.85
2019-04-25T22:24:44.699Z,25.40
2019-04-25T22:27:17.891Z,25.80
2019-04-25T22:29:50.982Z,24.60
2019-04-25T22:32:25.223Z,25.30
2019-04-25T22:35:08.947Z,26.15
2019-04-25T22:37:40.613Z,25.55
2019-04-25T22:40:12.187Z,25.30
2019-04-25T22:42:43.595Z,24.12
2019-04-25T22:45:15.348Z,24.60
2019-04-25T22:47:48.242Z,23.57
2019-04-25T22:50:21.725Z,22.35
2019-04-25T22:52:55.848Z,20.32
2019-04-25T22:55:27.093Z,21.40
2019-04-25T22:58:01.219Z,20.43
2019-04-25T23:00:37.567Z,18.70
2019-04-25T23:03:20.174Z,19.05
2019-04-25T23:05:54.190Z,19.07
2019-04-25T23:08:25.839Z,17.80
2019-04-25T23:10:57.187Z,17.42
2019-04-25T23:13:28.838Z,18.32
2019-04-25T23:16:00.397Z,16.48
2019-04-25T23:18:31.815Z,17.02
2019-04-25T23:21:04.009Z,15.90
2019-04-25T23:23:41.914Z,15.78
2019-04-25T23:26:22.067Z,15.60
2019-04-25T23:28:55.399Z,14.87
2019-04-25T23:31:31.639Z,14.45
2019-04-25T23:34:04.528Z,15.93
2019-04-25T23:36:37.164Z,16.17
2019-04-25T23:39:14.400Z,15.35
2019-04-25T23:41:47.248Z,15.08
2019-04-25T23:44:19.623Z,15.85
2019-04-25T23:46:51.508Z,16.62
2019-04-25T23:49:23.037Z,16.20
2019-04-25T23:51:54.381Z,16.45
2019-04-25T23:54:26.044Z,16.62
2019-04-25T23:56:58.343Z,16.37
2019-04-25T23:59:29.934Z,15.13
